Time;durP1;ratioP1;P1;durP2;ratioP2;P2;SDS_P1;SDS_P2;PMS_P1;PMS_P2;Temp;Humidity;BMP_temperature;BMP_pressure;BME280_temperature;BME280_humidity;BME280_pressure;Samples;Min_cycle;Max_cycle;Signal;HPM_P1;HPM_P2
2024/01/30 00:00:50;;;;;;;;;;;;;;;-6.29;100.00;99584.21;110441;1238;69376;-60
2024/01/30 00:03:41;;;;;;;;;;;;;;;-6.35;100.00;99584.39;110346;1240;59694;-60
2024/01/30 00:06:12;;;;;;;;;;;;;;;-6.41;100.00;99586.78;110277;1241;60060;-60
2024/01/30 00:08:46;;;;;;;;;;;;;;;-6.47;100.00;99584.23;110243;1241;71400;-60
2024/01/30 00:11:16;;;;;;;;;;;;;;;-6.50;100.00;99589.36;110289;1241;69450;-60
2024/01/30 00:13:46;;;;;;;;;;;;;;;-6.52;100.00;99591.52;110211;1241;69315;-61
2024/01/30 00:16:25;;;;;;;;;;;;;;;-6.55;100.00;99590.23;110242;1241;59660;-60
2024/01/30 00:18:58;;;;;;;;;;;;;;;-6.60;100.00;99591.10;110283;1241;59707;-60
2024/01/30 00:21:28;;;;;;;;;;;;;;;-6.64;100.00;99591.17;110330;1241;70506;-60
2024/01/30 00:23:59;;;;;;;;;;;;;;;-6.67;100.00;99593.11;110393;1241;69171;-61
2024/01/30 00:26:30;;;;;;;;;;;;;;;-6.70;100.00;99589.96;110401;1241;69109;-60
2024/01/30 00:29:00;;;;;;;;;;;;;;;-6.72;100.00;99589.38;110382;1241;59677;-60
2024/01/30 00:31:31;;;;;;;;;;;;;;;-6.76;100.00;99588.95;110384;1240;59682;-60
2024/01/30 00:34:12;;;;;;;;;;;;;;;-6.79;100.00;99593.09;110371;1240;70929;-60
2024/01/30 00:36:42;;;;;;;;;;;;;;;-6.81;100.00;99599.78;110424;1238;69454;-60
2024/01/30 00:39:12;;;;;;;;;;;;;;;-6.83;100.00;99604.98;110351;1240;69772;-60
2024/01/30 00:41:44;;;;;;;;;;;;;;;-6.87;100.00;99604.54;110371;1241;59748;-60
2024/01/30 00:44:15;;;;;;;;;;;;;;;-6.89;100.00;99600.05;110419;1241;59676;-60
2024/01/30 00:46:48;;;;;;;;;;;;;;;-6.92;100.00;99596.91;110349;1238;71413;-60
2024/01/30 00:49:21;;;;;;;;;;;;;;;-6.93;100.00;99594.02;110378;1240;69116;-60
2024/01/30 00:51:51;;;;;;;;;;;;;;;-6.92;100.00;99591.83;110397;1241;70391;-60
2024/01/30 00:54:21;;;;;;;;;;;;;;;-6.94;100.00;99590.92;110362;1241;59696;-59
2024/01/30 00:56:52;;;;;;;;;;;;;;;-6.94;100.00;99588.55;110399;1241;59695;-60
2024/01/30 00:59:23;;;;;;;;;;;;;;;-6.92;99.56;99586.07;110355;1240;71450;-60
2024/01/30 01:01:54;;;;;;;;;;;;;;;-6.90;99.83;99587.81;110357;1241;69386;-60
2024/01/30 01:04:26;;;;;;;;;;;;;;;-6.91;97.63;99586.77;110349;1238;69201;-59
2024/01/30 01:06:58;;;;;;;;;;;;;;;-6.89;100.00;99590.89;110438;1240;59623;-60
2024/01/30 01:09:29;;;;;;;;;;;;;;;-6.91;100.00;99589.48;110351;1240;59673;-59
2024/01/30 01:12:04;;;;;;;;;;;;;;;-6.95;100.00;99589.37;110404;1239;71563;-60
2024/01/30 01:14:36;;;;;;;;;;;;;;;-6.98;100.00;99587.05;110362;1241;69166;-60
2024/01/30 01:17:09;;;;;;;;;;;;;;;-6.97;100.00;99589.12;110375;1240;69320;-60
2024/01/30 01:19:42;;;;;;;;;;;;;;;-6.98;100.00;99584.69;110389;1240;59720;-60
2024/01/30 01:22:18;;;;;;;;;;;;;;;-7.01;100.00;99584.77;110372;1244;60136;-59
2024/01/30 01:24:51;;;;;;;;;;;;;;;-7.04;100.00;99581.45;110402;1241;70903;-60
2024/01/30 01:27:24;;;;;;;;;;;;;;;-7.06;100.00;99580.37;110386;1239;68492;-60
2024/01/30 01:29:56;;;;;;;;;;;;;;;-7.04;100.00;99574.32;110383;1241;69282;-60
2024/01/30 01:32:30;;;;;;;;;;;;;;;-6.99;100.00;99574.98;110343;1241;59672;-60
2024/01/30 01:35:08;;;;;;;;;;;;;;;-6.94;100.00;99578.89;110417;1240;59620;-60
2024/01/30 01:37:41;;;;;;;;;;;;;;;-6.91;100.00;99578.11;110359;1240;69794;-59
2024/01/30 01:40:15;;;;;;;;;;;;;;;-6.92;100.00;99578.28;110387;1241;69204;-60
2024/01/30 01:42:48;;;;;;;;;;;;;;;-6.90;100.00;99581.04;110370;1239;68332;-59
2024/01/30 01:45:21;;;;;;;;;;;;;;;-6.84;100.00;99582.58;110341;1241;59755;-60
2024/01/30 01:47:52;;;;;;;;;;;;;;;-6.80;100.00;99584.40;110428;1241;59675;-60
2024/01/30 01:50:24;;;;;;;;;;;;;;;-6.77;100.00;99580.08;110457;1241;71437;-59
2024/01/30 01:52:58;;;;;;;;;;;;;;;-6.76;100.00;99579.08;110383;1240;69302;-60
2024/01/30 01:55:40;;;;;;;;;;;;;;;-6.77;100.00;99580.42;110356;1239;68320;-60
2024/01/30 01:58:14;;;;;;;;;;;;;;;-6.81;100.00;99576.23;110270;1241;59637;-60
2024/01/30 02:00:59;;;;;;;;;;;;;;;-6.88;100.00;99575.66;110352;1239;59699;-60
2024/01/30 02:03:30;;;;;;;;;;;;;;;-6.91;100.00;99570.15;110378;1241;71254;-60
2024/01/30 02:06:04;;;;;;;;;;;;;;;-6.94;100.00;99569.37;110382;1241;69222;-60
2024/01/30 02:08:37;;;;;;;;;;;;;;;-6.97;100.00;99571.50;110384;1241;67568;-60
2024/01/30 02:11:09;;;;;;;;;;;;;;;-7.00;100.00;99566.48;110359;1241;59687;-60
2024/01/30 02:13:43;;;;;;;;;;;;;;;-7.03;100.00;99570.79;110445;1241;59738;-60
2024/01/30 02:16:15;;;;;;;;;;;;;;;-7.09;100.00;99569.94;110472;1241;70778;-61
2024/01/30 02:18:47;;;;;;;;;;;;;;;-7.14;100.00;99571.14;110423;1241;69208;-60
2024/01/30 02:21:19;;;;;;;;;;;;;;;-7.19;100.00;99569.09;110365;1241;69193;-61
2024/01/30 02:23:51;;;;;;;;;;;;;;;-7.24;100.00;99563.88;110467;1241;60087;-61
2024/01/30 02:26:26;;;;;;;;;;;;;;;-7.29;100.00;99563.53;110454;1241;59738;-61
2024/01/30 02:28:57;;;;;;;;;;;;;;;-7.34;100.00;99564.38;110579;1239;71309;-60
2024/01/30 02:31:32;;;;;;;;;;;;;;;-7.40;100.00;99563.17;110595;1238;68681;-61
2024/01/30 02:34:04;;;;;;;;;;;;;;;-7.45;100.00;99567.25;110538;1241;68515;-60
2024/01/30 02:36:35;;;;;;;;;;;;;;;-7.46;100.00;99568.23;110471;1241;59719;-61
2024/01/30 02:39:07;;;;;;;;;;;;;;;-7.47;100.00;99566.17;110385;1241;59701;-60
2024/01/30 02:41:40;;;;;;;;;;;;;;;-7.46;100.00;99568.05;110349;1240;71411;-61
2024/01/30 02:44:15;;;;;;;;;;;;;;;-7.47;100.00;99564.98;110419;1241;69154;-59
2024/01/30 02:46:47;;;;;;;;;;;;;;;-7.44;100.00;99567.09;110336;1241;69287;-57
2024/01/30 02:49:21;;;;;;;;;;;;;;;-7.43;100.00;99568.14;110367;1240;59732;-59
2024/01/30 02:51:56;;;;;;;;;;;;;;;-7.45;100.00;99570.98;110371;1241;59688;-59
2024/01/30 02:54:30;;;;;;;;;;;;;;;-7.48;100.00;99572.91;110391;1240;71425;-59
2024/01/30 02:57:00;;;;;;;;;;;;;;;-7.52;100.00;99574.80;110262;1241;69054;-60
2024/01/30 02:59:33;;;;;;;;;;;;;;;-7.57;100.00;99575.45;110369;1240;69347;-59
2024/01/30 03:02:05;;;;;;;;;;;;;;;-7.64;100.00;99575.58;110375;1238;59725;-60
2024/01/30 03:04:38;;;;;;;;;;;;;;;-7.67;100.00;99572.06;110380;1240;59735;-60
2024/01/30 03:07:15;;;;;;;;;;;;;;;-7.66;100.00;99576.87;110336;1239;70628;-60
2024/01/30 03:09:46;;;;;;;;;;;;;;;-7.63;100.00;99572.05;110537;1239;68494;-60
2024/01/30 03:12:27;;;;;;;;;;;;;;;-7.58;100.00;99571.54;110356;1241;69793;-60
2024/01/30 03:15:05;;;;;;;;;;;;;;;-7.56;100.00;99567.55;110339;1242;59692;-60
2024/01/30 03:17:40;;;;;;;;;;;;;;;-7.54;100.00;99570.16;110380;1238;59671;-60
2024/01/30 03:20:18;;;;;;;;;;;;;;;-7.51;100.00;99569.91;110376;1240;70758;-60
2024/01/30 03:22:53;;;;;;;;;;;;;;;-7.48;100.00;99574.93;110342;1241;69108;-60
2024/01/30 03:25:27;;;;;;;;;;;;;;;-7.43;100.00;99574.59;110348;1241;69299;-61
2024/01/30 03:28:03;;;;;;;;;;;;;;;-7.41;100.00;99576.50;110375;1240;59720;-61
2024/01/30 03:30:38;;;;;;;;;;;;;;;-7.42;100.00;99570.20;110367;1239;59734;-60
2024/01/30 03:33:09;;;;;;;;;;;;;;;-7.45;100.00;99573.50;110359;1240;71991;-61
2024/01/30 03:35:42;;;;;;;;;;;;;;;-7.46;100.00;99573.31;110449;1241;69560;-60
2024/01/30 03:38:17;;;;;;;;;;;;;;;-7.47;100.00;99568.53;110346;1241;68610;-60
2024/01/30 03:40:49;;;;;;;;;;;;;;;-7.48;100.00;99568.49;110378;1239;59692;-60
2024/01/30 03:43:22;;;;;;;;;;;;;;;-7.50;100.00;99571.13;110385;1241;59675;-60
2024/01/30 03:45:57;;;;;;;;;;;;;;;-7.54;100.00;99568.11;110414;1239;70617;-61
2024/01/30 03:48:33;;;;;;;;;;;;;;;-7.56;100.00;99575.32;110345;1239;68395;-60
2024/01/30 03:51:07;;;;;;;;;;;;;;;-7.61;100.00;99578.05;110413;1241;69345;-61
2024/01/30 03:53:40;;;;;;;;;;;;;;;-7.63;100.00;99576.79;110350;1244;60061;-60
2024/01/30 03:56:15;;;;;;;;;;;;;;;-7.60;100.00;99574.35;110359;1240;59828;-60
2024/01/30 03:58:46;;;;;;;;;;;;;;;-7.59;100.00;99570.16;110342;1240;70627;-60
2024/01/30 04:01:16;;;;;;;;;;;;;;;-7.59;100.00;99566.23;110344;1241;69066;-60
2024/01/30 04:03:47;;;;;;;;;;;;;;;-7.60;100.00;99564.03;110353;1241;69327;-60
2024/01/30 04:06:20;;;;;;;;;;;;;;;-7.60;100.00;99562.83;110340;1240;59745;-60
2024/01/30 04:08:57;;;;;;;;;;;;;;;-7.61;100.00;99564.67;110365;1240;59678;-61
2024/01/30 04:11:31;;;;;;;;;;;;;;;-7.62;100.00;99567.20;110368;1240;71781;-60
2024/01/30 04:14:05;;;;;;;;;;;;;;;-7.62;100.00;99569.70;110514;1240;69818;-60
2024/01/30 04:16:37;;;;;;;;;;;;;;;-7.64;100.00;99572.16;110383;1240;69114;-60
2024/01/30 04:19:08;;;;;;;;;;;;;;;-7.65;100.00;99572.48;110329;1241;59696;-61
2024/01/30 04:21:38;;;;;;;;;;;;;;;-7.69;100.00;99579.45;110387;1241;59642;-61
2024/01/30 04:24:09;;;;;;;;;;;;;;;-7.76;100.00;99581.09;110381;1241;70803;-61
2024/01/30 04:26:39;;;;;;;;;;;;;;;-7.80;100.00;99582.66;110409;1238;69216;-60
2024/01/30 04:29:10;;;;;;;;;;;;;;;-7.82;100.00;99584.23;110415;1241;68559;-60
2024/01/30 04:31:40;;;;;;;;;;;;;;;-7.88;100.00;99586.77;110375;1238;59683;-60
2024/01/30 04:34:12;;;;;;;;;;;;;;;-7.93;100.00;99597.44;110528;1239;59666;-60
2024/01/30 04:36:45;;;;;;;;;;;;;;;-7.96;100.00;99601.56;110392;1241;71543;-59
2024/01/30 04:39:15;;;;;;;;;;;;;;;-8.03;100.00;99599.96;110374;1240;68520;-60
2024/01/30 04:41:46;;;;;;;;;;;;;;;-8.12;100.00;99597.92;110346;1241;69315;-60
2024/01/30 04:44:18;;;;;;;;;;;;;;;-8.21;100.00;99597.12;110421;1241;59770;-59
2024/01/30 04:46:48;;;;;;;;;;;;;;;-8.31;100.00;99599.61;110370;1241;59718;-60
2024/01/30 04:49:18;;;;;;;;;;;;;;;-8.40;100.00;99603.02;110376;1243;71289;-58
2024/01/30 04:51:49;;;;;;;;;;;;;;;-8.47;100.00;99601.41;110367;1241;68088;-60
2024/01/30 04:54:20;;;;;;;;;;;;;;;-8.54;100.00;99603.01;110370;1240;68424;-59
2024/01/30 04:56:50;;;;;;;;;;;;;;;-8.58;100.00;99605.70;110392;1240;59669;-61
2024/01/30 04:59:22;;;;;;;;;;;;;;;-8.63;100.00;99600.14;110506;1240;59712;-60
2024/01/30 05:01:52;;;;;;;;;;;;;;;-8.68;100.00;99597.05;110425;1241;70610;-60
2024/01/30 05:04:22;;;;;;;;;;;;;;;-8.72;100.00;99598.61;110492;1241;69859;-60
2024/01/30 05:06:53;;;;;;;;;;;;;;;-8.74;100.00;99601.23;110530;1240;69306;-61
2024/01/30 05:09:23;;;;;;;;;;;;;;;-8.75;100.00;99599.84;110569;1241;59735;-61
2024/01/30 05:11:53;;;;;;;;;;;;;;;-8.77;100.00;99597.59;110295;1241;59678;-61
2024/01/30 05:14:22;;;;;;;;;;;;;;;-8.78;100.00;99597.70;110312;1241;70657;-59
2024/01/30 05:16:52;;;;;;;;;;;;;;;-8.76;100.00;99597.79;110340;1241;69699;-61
2024/01/30 05:19:23;;;;;;;;;;;;;;;-8.73;100.00;99597.73;110314;1243;69157;-61
2024/01/30 05:21:53;;;;;;;;;;;;;;;-8.73;100.00;99598.59;110467;1241;60127;-60
2024/01/30 05:24:22;;;;;;;;;;;;;;;-8.74;100.00;99601.39;110463;1243;59737;-60
2024/01/30 05:26:55;;;;;;;;;;;;;;;-8.75;100.00;99603.55;110396;1241;71989;-60
2024/01/30 05:29:24;;;;;;;;;;;;;;;-8.77;100.00;99601.45;110386;1239;68534;-60
2024/01/30 05:31:55;;;;;;;;;;;;;;;-8.77;100.00;99598.25;110358;1242;69115;-60
2024/01/30 05:34:24;;;;;;;;;;;;;;;-8.78;100.00;99603.77;110405;1241;59740;-60
2024/01/30 05:36:53;;;;;;;;;;;;;;;-8.78;100.00;99604.84;110377;1241;59749;-60
2024/01/30 05:39:23;;;;;;;;;;;;;;;-8.79;100.00;99604.23;110400;1238;72059;-59
2024/01/30 05:41:52;;;;;;;;;;;;;;;-8.81;100.00;99601.48;110451;1241;69233;-61
2024/01/30 05:44:21;;;;;;;;;;;;;;;-8.83;100.00;99605.13;110541;1241;69392;-60
2024/01/30 05:46:51;;;;;;;;;;;;;;;-8.86;100.00;99607.70;110418;1241;59689;-60
2024/01/30 05:49:21;;;;;;;;;;;;;;;-8.87;100.00;99613.92;110357;1242;59669;-60
2024/01/30 05:51:51;;;;;;;;;;;;;;;-8.88;100.00;99616.92;110388;1238;71414;-61
2024/01/30 05:54:21;;;;;;;;;;;;;;;-8.91;100.00;99616.10;110373;1241;69804;-60
2024/01/30 05:56:51;;;;;;;;;;;;;;;-8.93;100.00;99619.41;110345;1240;69321;-60
2024/01/30 05:59:56;;;;;;;;;;;;;;;-8.93;100.00;99620.43;110334;1240;59729;-59
2024/01/30 06:02:25;;;;;;;;;;;;;;;-8.93;100.00;99622.11;110312;1241;59659;-60
2024/01/30 06:04:53;;;;;;;;;;;;;;;-8.91;100.00;99623.73;110285;1241;71292;-61
2024/01/30 06:07:22;;;;;;;;;;;;;;;-8.86;100.00;99619.18;110320;1240;69293;-61
2024/01/30 06:09:51;;;;;;;;;;;;;;;-8.85;100.00;99619.40;110259;1240;69834;-59
2024/01/30 06:12:20;;;;;;;;;;;;;;;-8.83;100.00;99620.13;110285;1242;59792;-61
2024/01/30 06:14:50;;;;;;;;;;;;;;;-8.81;100.00;99623.62;110300;1241;59667;-60
2024/01/30 06:17:19;;;;;;;;;;;;;;;-8.79;100.00;99623.02;110280;1239;71536;-60
2024/01/30 06:19:48;;;;;;;;;;;;;;;-8.75;100.00;99629.91;110310;1241;69671;-61
2024/01/30 06:22:17;;;;;;;;;;;;;;;-8.73;100.00;99632.56;110482;1238;69328;-60
2024/01/30 06:24:47;;;;;;;;;;;;;;;-8.67;100.00;99630.77;110322;1241;59731;-60
2024/01/30 06:27:17;;;;;;;;;;;;;;;-8.59;100.00;99631.06;110329;1241;59694;-60
2024/01/30 06:29:46;;;;;;;;;;;;;;;-8.45;100.00;99632.79;110398;1241;71843;-60
2024/01/30 06:32:15;;;;;;;;;;;;;;;-8.29;100.00;99633.52;110542;1241;69507;-62
2024/01/30 06:34:44;;;;;;;;;;;;;;;-8.12;100.00;99635.64;110401;1240;69703;-61
2024/01/30 06:37:13;;;;;;;;;;;;;;;-8.03;100.00;99636.52;110485;1240;59687;-61
2024/01/30 06:39:42;;;;;;;;;;;;;;;-8.00;100.00;99633.73;110403;1241;59717;-61
2024/01/30 06:42:11;;;;;;;;;;;;;;;-7.98;100.00;99636.19;110369;1239;71387;-61
2024/01/30 06:44:40;;;;;;;;;;;;;;;-7.97;100.00;99636.05;110482;1241;69883;-61
2024/01/30 06:47:09;;;;;;;;;;;;;;;-7.96;100.00;99636.41;110368;1241;68829;-60
2024/01/30 06:49:38;;;;;;;;;;;;;;;-7.93;100.00;99638.55;110337;1240;59741;-60
2024/01/30 06:52:08;;;;;;;;;;;;;;;-7.86;100.00;99638.98;110363;1240;60116;-61
2024/01/30 06:54:37;;;;;;;;;;;;;;;-7.76;100.00;99638.34;110496;1240;72290;-60
2024/01/30 06:57:11;;;;;;;;;;;;;;;-7.63;100.00;99639.43;110311;1240;69973;-61
2024/01/30 06:59:43;;;;;;;;;;;;;;;-7.49;100.00;99633.19;110351;1240;69966;-61
2024/01/30 07:02:11;;;;;;;;;;;;;;;-7.30;100.00;99633.64;110482;1241;59682;-61
2024/01/30 07:04:41;;;;;;;;;;;;;;;-6.95;100.00;99634.27;110376;1239;59678;-61
2024/01/30 07:07:14;;;;;;;;;;;;;;;-6.36;100.00;99638.14;110363;1240;71986;-61
2024/01/30 07:09:44;;;;;;;;;;;;;;;-5.72;100.00;99639.61;110365;1240;69037;-62
2024/01/30 07:12:13;;;;;;;;;;;;;;;-5.05;100.00;99645.11;110314;1241;68343;-62
2024/01/30 07:14:42;;;;;;;;;;;;;;;-4.38;100.00;99642.96;110369;1240;59748;-62
2024/01/30 07:17:11;;;;;;;;;;;;;;;-3.74;100.00;99637.34;110372;1240;59686;-62
2024/01/30 07:19:40;;;;;;;;;;;;;;;-3.11;99.12;99638.84;110285;1240;72011;-62
2024/01/30 07:22:09;;;;;;;;;;;;;;;-2.58;93.66;99641.77;110355;1241;68801;-62
2024/01/30 07:24:44;;;;;;;;;;;;;;;-1.93;95.63;99635.99;110347;1239;70150;-62
2024/01/30 07:27:13;;;;;;;;;;;;;;;-1.03;100.00;99636.98;110345;1241;59686;-62
2024/01/30 07:29:42;;;;;;;;;;;;;;;-0.67;83.75;99638.82;110330;1240;59744;-62
2024/01/30 07:32:11;;;;;;;;;;;;;;;-0.36;79.55;99636.98;110380;1239;71393;-63
2024/01/30 07:34:40;;;;;;;;;;;;;;;0.04;76.04;99636.70;110418;1242;69179;-62
2024/01/30 07:37:26;;;;;;;;;;;;;;;0.22;76.14;99633.19;110419;1240;69780;-63
2024/01/30 07:39:55;;;;;;;;;;;;;;;0.70;72.91;99635.74;110448;1240;59734;-63
2024/01/30 07:42:24;;;;;;;;;;;;;;;0.85;70.94;99632.50;110429;1241;60130;-61
2024/01/30 07:44:52;;;;;;;;;;;;;;;1.09;69.96;99633.40;110646;1238;71609;-62
2024/01/30 07:47:21;;;;;;;;;;;;;;;1.54;68.76;99639.58;110430;1241;69256;-62
2024/01/30 07:49:51;;;;;;;;;;;;;;;1.95;65.45;99637.95;110349;1241;68209;-61
2024/01/30 07:52:20;;;;;;;;;;;;;;;2.06;64.40;99634.13;110387;1242;59618;-62
2024/01/30 07:54:51;;;;;;;;;;;;;;;1.91;65.11;99633.48;110414;1240;59749;-61
2024/01/30 07:57:19;;;;;;;;;;;;;;;2.35;63.17;99636.61;110460;1239;71778;-62
2024/01/30 07:59:48;;;;;;;;;;;;;;;2.71;61.93;99642.97;110467;1241;69233;-62
2024/01/30 08:02:18;;;;;;;;;;;;;;;2.56;61.42;99639.94;110440;1242;69903;-61
2024/01/30 08:04:49;;;;;;;;;;;;;;;2.72;62.07;99641.05;110520;1239;59690;-62
2024/01/30 08:07:18;;;;;;;;;;;;;;;3.56;60.36;99645.45;110477;1238;59644;-61
2024/01/30 08:09:48;;;;;;;;;;;;;;;3.98;61.61;99639.50;110622;1241;71157;-62
2024/01/30 08:12:17;;;;;;;;;;;;;;;4.41;58.04;99638.67;110470;1241;69671;-62
2024/01/30 08:14:46;;;;;;;;;;;;;;;4.71;53.98;99637.07;110350;1240;69097;-62
2024/01/30 08:17:14;;;;;;;;;;;;;;;5.07;56.84;99638.44;110400;1249;59750;-62
2024/01/30 08:19:44;;;;;;;;;;;;;;;5.32;54.90;99639.96;110495;1241;59676;-63
2024/01/30 08:22:13;;;;;;;;;;;;;;;5.51;53.91;99641.20;110509;1241;70649;-61
2024/01/30 08:24:42;;;;;;;;;;;;;;;5.71;52.23;99637.23;110491;1241;69167;-61
2024/01/30 08:27:12;;;;;;;;;;;;;;;5.88;51.85;99635.52;110361;1244;70050;-61
2024/01/30 08:29:40;;;;;;;;;;;;;;;6.10;50.60;99637.23;110465;1241;59730;-62
2024/01/30 08:32:09;;;;;;;;;;;;;;;5.56;50.38;99633.67;110472;1241;59627;-62
2024/01/30 08:34:38;;;;;;;;;;;;;;;6.01;49.44;99631.50;110360;1242;71314;-62
2024/01/30 08:37:07;;;;;;;;;;;;;;;6.20;49.48;99629.58;110376;1241;69232;-61
2024/01/30 08:39:36;;;;;;;;;;;;;;;6.56;48.76;99631.80;110345;1241;68831;-62
2024/01/30 08:42:05;;;;;;;;;;;;;;;6.75;47.57;99631.73;110353;1240;59740;-61
2024/01/30 08:44:33;;;;;;;;;;;;;;;6.50;47.12;99626.86;110578;1239;59719;-61
2024/01/30 08:47:03;;;;;;;;;;;;;;;6.80;50.30;99630.76;110466;1241;71336;-61
2024/01/30 08:49:31;;;;;;;;;;;;;;;6.81;46.56;99629.84;110365;1240;69547;-61
2024/01/30 08:52:01;;;;;;;;;;;;;;;6.91;46.89;99627.36;110433;1241;69811;-61
2024/01/30 08:54:30;;;;;;;;;;;;;;;6.58;47.43;99628.28;110407;1241;59742;-61
2024/01/30 08:56:59;;;;;;;;;;;;;;;6.71;46.95;99624.88;110445;1242;59691;-61
2024/01/30 08:59:27;;;;;;;;;;;;;;;7.17;46.92;99623.83;110428;1240;71986;-61
2024/01/30 09:01:58;;;;;;;;;;;;;;;7.58;46.48;99617.79;110374;1240;69244;-61
2024/01/30 09:04:39;;;;;;;;;;;;;;;7.39;46.50;99617.84;110349;1238;69632;-61
2024/01/30 09:07:09;;;;;;;;;;;;;;;7.45;46.25;99614.99;110339;1246;59737;-61
2024/01/30 09:09:40;;;;;;;;;;;;;;;7.54;45.24;99615.80;110368;1244;60077;-61
2024/01/30 09:12:11;;;;;;;;;;;;;;;7.33;44.71;99619.27;110405;1242;71254;-61
2024/01/30 09:14:41;;;;;;;;;;;;;;;7.59;44.61;99612.17;110396;1240;69694;-61
2024/01/30 09:17:10;;;;;;;;;;;;;;;8.71;43.33;99612.75;110466;1241;68798;-61
2024/01/30 09:19:40;;;;;;;;;;;;;;;8.86;42.83;99608.84;110350;1241;60151;-61
2024/01/30 09:22:08;;;;;;;;;;;;;;;8.34;42.76;99604.77;110482;1241;59692;-61
2024/01/30 09:24:38;;;;;;;;;;;;;;;8.74;41.64;99605.73;110328;1238;71318;-60
2024/01/30 09:27:06;;;;;;;;;;;;;;;7.93;42.16;99610.43;110353;1241;69104;-62
2024/01/30 09:29:36;;;;;;;;;;;;;;;7.55;42.95;99608.81;110442;1242;69876;-63
2024/01/30 09:32:06;;;;;;;;;;;;;;;8.61;42.17;99600.16;110462;1241;59734;-61
2024/01/30 09:34:35;;;;;;;;;;;;;;;7.66;42.52;99598.29;110425;1239;59734;-62
2024/01/30 09:37:04;;;;;;;;;;;;;;;8.64;41.93;99597.31;110492;1240;71965;-60
2024/01/30 09:39:33;;;;;;;;;;;;;;;7.83;43.26;99592.64;110476;1238;69216;-62
2024/01/30 09:42:11;;;;;;;;;;;;;;;7.69;43.41;99594.05;110334;1242;69888;-61
2024/01/30 09:44:43;;;;;;;;;;;;;;;8.53;43.36;99589.43;110396;1242;59756;-61
2024/01/30 09:47:11;;;;;;;;;;;;;;;9.58;42.40;99586.11;110476;1241;59659;-61
2024/01/30 09:49:41;;;;;;;;;;;;;;;9.08;39.83;99578.91;110378;1240;70940;-61
2024/01/30 09:52:11;;;;;;;;;;;;;;;9.44;40.30;99571.96;110384;1240;69661;-61
2024/01/30 09:54:40;;;;;;;;;;;;;;;9.13;40.34;99572.64;110415;1248;69724;-61
2024/01/30 09:57:09;;;;;;;;;;;;;;;9.55;40.26;99574.88;110358;1240;59742;-63
2024/01/30 09:59:38;;;;;;;;;;;;;;;9.23;40.40;99570.02;110388;1241;59720;-60
2024/01/30 10:02:07;;;;;;;;;;;;;;;9.48;40.27;99564.83;110480;1242;72471;-60
2024/01/30 10:04:36;;;;;;;;;;;;;;;10.11;39.72;99562.30;110413;1240;69809;-62
2024/01/30 10:07:06;;;;;;;;;;;;;;;10.42;38.47;99564.08;110486;1242;69599;-62
2024/01/30 10:09:36;;;;;;;;;;;;;;;10.42;38.33;99564.11;110377;1241;59661;-60
2024/01/30 10:12:06;;;;;;;;;;;;;;;10.72;38.06;99568.21;110481;1240;59689;-60
2024/01/30 10:14:38;;;;;;;;;;;;;;;9.42;38.59;99567.66;110491;1241;71316;-61
2024/01/30 10:17:10;;;;;;;;;;;;;;;9.17;39.35;99566.94;110552;1240;69035;-62
2024/01/30 10:19:51;;;;;;;;;;;;;;;10.12;39.45;99566.23;110404;1242;69668;-61
2024/01/30 10:22:21;;;;;;;;;;;;;;;11.56;38.16;99562.15;110534;1242;59687;-62
2024/01/30 10:24:50;;;;;;;;;;;;;;;12.28;36.55;99557.77;110398;1243;59675;-61
2024/01/30 10:27:24;;;;;;;;;;;;;;;11.72;35.38;99555.64;110380;1241;71497;-61
2024/01/30 10:29:53;;;;;;;;;;;;;;;11.27;35.99;99556.16;110375;1242;68325;-60
2024/01/30 10:32:21;;;;;;;;;;;;;;;11.42;36.26;99554.14;110269;1248;69112;-60
2024/01/30 10:34:52;;;;;;;;;;;;;;;11.90;35.82;99547.73;110338;1242;59652;-60
2024/01/30 10:37:22;;;;;;;;;;;;;;;11.70;35.34;99548.09;110412;1242;59766;-62
2024/01/30 10:39:53;;;;;;;;;;;;;;;12.13;35.57;99549.73;110432;1241;71192;-62
2024/01/30 10:42:25;;;;;;;;;;;;;;;12.68;35.79;99543.14;110371;1241;69623;-61
2024/01/30 10:44:54;;;;;;;;;;;;;;;13.24;34.97;99538.84;110357;1241;69223;-61
2024/01/30 10:47:27;;;;;;;;;;;;;;;12.01;33.45;99531.69;110301;1243;59707;-61
2024/01/30 10:49:56;;;;;;;;;;;;;;;12.72;34.62;99524.04;110388;1240;59738;-61
2024/01/30 10:52:27;;;;;;;;;;;;;;;13.73;33.97;99519.02;110287;1242;71951;-61
2024/01/30 10:54:56;;;;;;;;;;;;;;;13.66;33.31;99515.66;110466;1242;69729;-61
2024/01/30 10:57:26;;;;;;;;;;;;;;;13.51;33.17;99512.24;110394;1240;69235;-61
2024/01/30 10:59:56;;;;;;;;;;;;;;;13.57;32.43;99511.02;110346;1241;59683;-61
2024/01/30 11:02:26;;;;;;;;;;;;;;;13.08;32.54;99509.27;110346;1240;60188;-61
2024/01/30 11:04:57;;;;;;;;;;;;;;;13.35;32.98;99506.39;110334;1242;71641;-61
2024/01/30 11:07:27;;;;;;;;;;;;;;;14.25;32.57;99502.73;110383;1241;70074;-61
2024/01/30 11:10:00;;;;;;;;;;;;;;;14.69;30.86;99498.56;110508;1242;69856;-62
2024/01/30 11:12:32;;;;;;;;;;;;;;;14.31;30.90;99492.00;110428;1244;59687;-61
2024/01/30 11:15:08;;;;;;;;;;;;;;;13.30;31.80;99487.73;109951;1244;673763;-61
2024/01/30 11:17:49;;;;;;;;;;;;;;;13.66;32.16;99489.73;110491;1241;71297;-62
2024/01/30 11:20:21;;;;;;;;;;;;;;;13.89;31.45;99485.38;110303;1241;69726;-62
2024/01/30 11:22:54;;;;;;;;;;;;;;;14.52;31.16;99487.52;110499;1241;69808;-62
2024/01/30 11:25:23;;;;;;;;;;;;;;;14.42;30.39;99479.86;110573;1241;59721;-63
2024/01/30 11:27:53;;;;;;;;;;;;;;;12.80;31.94;99476.73;110500;1241;59672;-62
2024/01/30 11:30:26;;;;;;;;;;;;;;;13.71;31.27;99476.88;110479;1243;70492;-63
2024/01/30 11:33:04;;;;;;;;;;;;;;;12.66;32.07;99479.77;110400;1241;69839;-61
2024/01/30 11:35:35;;;;;;;;;;;;;;;12.52;32.46;99477.56;110384;1242;69686;-61
2024/01/30 11:38:04;;;;;;;;;;;;;;;11.95;32.61;99471.85;110392;1241;59756;-61
2024/01/30 11:40:34;;;;;;;;;;;;;;;12.68;32.46;99469.27;110630;1242;59585;-61
2024/01/30 11:43:04;;;;;;;;;;;;;;;13.03;31.32;99465.29;110474;1239;71838;-62
2024/01/30 11:45:34;;;;;;;;;;;;;;;13.17;31.72;99461.80;110320;1242;69274;-62
2024/01/30 11:48:03;;;;;;;;;;;;;;;13.58;32.40;99463.02;110261;1241;69706;-61
2024/01/30 11:50:34;;;;;;;;;;;;;;;14.74;31.52;99457.36;110280;1243;59681;-62
2024/01/30 11:53:04;;;;;;;;;;;;;;;15.09;30.98;99452.68;110291;1242;59680;-62
2024/01/30 11:55:35;;;;;;;;;;;;;;;14.59;30.91;99452.11;110288;1242;71519;-61
2024/01/30 11:58:04;;;;;;;;;;;;;;;14.51;31.17;99448.29;110266;1241;69218;-63
2024/01/30 12:00:33;;;;;;;;;;;;;;;15.28;30.50;99444.89;110206;1242;69901;-60
2024/01/30 12:03:06;;;;;;;;;;;;;;;15.58;29.54;99443.63;110156;1242;59728;-61
2024/01/30 12:05:36;;;;;;;;;;;;;;;15.88;29.63;99446.68;110243;1242;59630;-61
2024/01/30 12:08:05;;;;;;;;;;;;;;;15.64;29.03;99440.63;110297;1244;71368;-63
2024/01/30 12:10:34;;;;;;;;;;;;;;;15.71;28.94;99439.95;110275;1243;69220;-61
2024/01/30 12:13:03;;;;;;;;;;;;;;;15.59;28.84;99439.00;110262;1249;70308;-61
2024/01/30 12:15:32;;;;;;;;;;;;;;;16.05;29.33;99436.50;110263;1241;59736;-61
2024/01/30 12:18:05;;;;;;;;;;;;;;;15.69;28.43;99434.84;110491;1242;59621;-61
2024/01/30 12:20:35;;;;;;;;;;;;;;;15.48;29.13;99436.63;110401;1242;71804;-63
2024/01/30 12:23:04;;;;;;;;;;;;;;;15.26;29.26;99432.55;110436;1241;69215;-61
2024/01/30 12:25:33;;;;;;;;;;;;;;;15.43;28.87;99429.75;110477;1242;68229;-63
2024/01/30 12:28:03;;;;;;;;;;;;;;;14.84;29.66;99425.04;110341;1244;59692;-61
2024/01/30 12:30:31;;;;;;;;;;;;;;;15.16;29.09;99424.90;110474;1241;59672;-61
2024/01/30 12:33:01;;;;;;;;;;;;;;;14.66;29.40;99423.02;110357;1241;71815;-61
2024/01/30 12:35:30;;;;;;;;;;;;;;;14.71;29.70;99415.77;110415;1242;69287;-61
2024/01/30 12:38:02;;;;;;;;;;;;;;;14.73;29.25;99418.30;110356;1242;69288;-62
2024/01/30 12:40:33;;;;;;;;;;;;;;;14.64;29.39;99415.98;110359;1248;59740;-63
2024/01/30 12:43:03;;;;;;;;;;;;;;;15.47;28.37;99413.73;110344;1243;59624;-61
2024/01/30 12:45:31;;;;;;;;;;;;;;;15.29;27.89;99414.77;110346;1241;71922;-60
2024/01/30 12:48:00;;;;;;;;;;;;;;;15.39;28.02;99414.73;110337;1242;69843;-62
2024/01/30 12:50:29;;;;;;;;;;;;;;;15.81;27.18;99414.30;110381;1248;69680;-60
2024/01/30 12:52:57;;;;;;;;;;;;;;;15.75;27.42;99416.77;110340;1241;60078;-60